sensor_id;sensor_type;location;lat;lon;timestamp;P1;durP1;ratioP1;P2;durP2;ratioP2
58470;SDS011;44258;51.288;12.068;2023-03-23T00:01:47;5.75;;;1.92;;
58470;SDS011;44258;51.288;12.068;2023-03-23T00:04:15;5.28;;;2.22;;
58470;SDS011;44258;51.288;12.068;2023-03-23T00:06:43;3.65;;;1.80;;
58470;SDS011;44258;51.288;12.068;2023-03-23T00:09:11;4.47;;;1.95;;
58470;SDS011;44258;51.288;12.068;2023-03-23T00:11:40;3.08;;;1.50;;
58470;SDS011;44258;51.288;12.068;2023-03-23T00:14:07;3.20;;;1.58;;
58470;SDS011;44258;51.288;12.068;2023-03-23T00:16:39;4.07;;;1.42;;
58470;SDS011;44258;51.288;12.068;2023-03-23T00:19:08;4.57;;;1.40;;
58470;SDS011;44258;51.288;12.068;2023-03-23T00:21:38;2.63;;;1.33;;
58470;SDS011;44258;51.288;12.068;2023-03-23T00:24:08;2.83;;;1.40;;
58470;SDS011;44258;51.288;12.068;2023-03-23T00:26:37;3.70;;;1.35;;
58470;SDS011;44258;51.288;12.068;2023-03-23T00:29:06;4.55;;;1.63;;
58470;SDS011;44258;51.288;12.068;2023-03-23T00:31:33;4.70;;;1.30;;
58470;SDS011;44258;51.288;12.068;2023-03-23T00:34:00;3.08;;;1.45;;
58470;SDS011;44258;51.288;12.068;2023-03-23T00:36:29;3.03;;;1.10;;
58470;SDS011;44258;51.288;12.068;2023-03-23T00:38:57;2.10;;;1.20;;
58470;SDS011;44258;51.288;12.068;2023-03-23T00:41:26;1.42;;;1.00;;
58470;SDS011;44258;51.288;12.068;2023-03-23T00:43:54;3.15;;;1.25;;
58470;SDS011;44258;51.288;12.068;2023-03-23T00:46:24;3.92;;;1.50;;
58470;SDS011;44258;51.288;12.068;2023-03-23T00:48:51;3.95;;;1.67;;
58470;SDS011;44258;51.288;12.068;2023-03-23T00:51:18;2.88;;;1.50;;
58470;SDS011;44258;51.288;12.068;2023-03-23T00:53:45;4.10;;;1.63;;
58470;SDS011;44258;51.288;12.068;2023-03-23T00:56:12;3.03;;;1.40;;
58470;SDS011;44258;51.288;12.068;2023-03-23T00:58:41;4.30;;;1.58;;
58470;SDS011;44258;51.288;12.068;2023-03-23T01:01:08;3.85;;;1.60;;
58470;SDS011;44258;51.288;12.068;2023-03-23T01:03:35;2.78;;;1.52;;
58470;SDS011;44258;51.288;12.068;2023-03-23T01:06:06;3.25;;;1.70;;
58470;SDS011;44258;51.288;12.068;2023-03-23T01:08:37;4.00;;;1.70;;
58470;SDS011;44258;51.288;12.068;2023-03-23T01:11:11;2.90;;;1.60;;
58470;SDS011;44258;51.288;12.068;2023-03-23T01:13:39;2.75;;;1.55;;
58470;SDS011;44258;51.288;12.068;2023-03-23T01:16:08;4.25;;;1.55;;
58470;SDS011;44258;51.288;12.068;2023-03-23T01:18:35;3.20;;;1.60;;
58470;SDS011;44258;51.288;12.068;2023-03-23T01:21:05;5.63;;;1.52;;
58470;SDS011;44258;51.288;12.068;2023-03-23T01:23:33;3.28;;;1.50;;
58470;SDS011;44258;51.288;12.068;2023-03-23T01:26:04;3.80;;;1.75;;
58470;SDS011;44258;51.288;12.068;2023-03-23T01:28:36;3.45;;;1.58;;
58470;SDS011;44258;51.288;12.068;2023-03-23T01:31:05;3.30;;;1.40;;
58470;SDS011;44258;51.288;12.068;2023-03-23T01:33:34;4.55;;;1.63;;
58470;SDS011;44258;51.288;12.068;2023-03-23T01:36:02;4.30;;;1.88;;
58470;SDS011;44258;51.288;12.068;2023-03-23T01:38:31;5.10;;;1.65;;
58470;SDS011;44258;51.288;12.068;2023-03-23T01:40:59;2.70;;;1.30;;
58470;SDS011;44258;51.288;12.068;2023-03-23T01:43:25;3.70;;;1.70;;
58470;SDS011;44258;51.288;12.068;2023-03-23T01:45:52;3.25;;;1.52;;
58470;SDS011;44258;51.288;12.068;2023-03-23T01:48:21;3.97;;;1.95;;
58470;SDS011;44258;51.288;12.068;2023-03-23T01:50:51;3.92;;;1.65;;
58470;SDS011;44258;51.288;12.068;2023-03-23T01:53:24;2.22;;;1.35;;
58470;SDS011;44258;51.288;12.068;2023-03-23T01:55:55;6.00;;;2.00;;
58470;SDS011;44258;51.288;12.068;2023-03-23T01:58:25;3.20;;;1.63;;
58470;SDS011;44258;51.288;12.068;2023-03-23T02:00:54;4.97;;;1.60;;
58470;SDS011;44258;51.288;12.068;2023-03-23T02:03:25;2.67;;;1.38;;
58470;SDS011;44258;51.288;12.068;2023-03-23T02:05:56;3.38;;;1.27;;
58470;SDS011;44258;51.288;12.068;2023-03-23T02:08:24;3.25;;;1.25;;
58470;SDS011;44258;51.288;12.068;2023-03-23T02:10:54;2.42;;;1.30;;
58470;SDS011;44258;51.288;12.068;2023-03-23T02:13:21;3.42;;;1.23;;
58470;SDS011;44258;51.288;12.068;2023-03-23T02:15:50;4.45;;;1.20;;
58470;SDS011;44258;51.288;12.068;2023-03-23T02:21:20;3.83;;;1.52;;
58470;SDS011;44258;51.288;12.068;2023-03-23T02:27:27;2.67;;;1.17;;
58470;SDS011;44258;51.288;12.068;2023-03-23T02:30:14;2.47;;;1.40;;
58470;SDS011;44258;51.288;12.068;2023-03-23T02:36:00;3.92;;;1.23;;
58470;SDS011;44258;51.288;12.068;2023-03-23T02:38:35;2.45;;;1.50;;
58470;SDS011;44258;51.288;12.068;2023-03-23T02:41:07;3.58;;;1.13;;
58470;SDS011;44258;51.288;12.068;2023-03-23T02:43:38;2.78;;;1.08;;
58470;SDS011;44258;51.288;12.068;2023-03-23T02:46:07;4.45;;;1.08;;
58470;SDS011;44258;51.288;12.068;2023-03-23T02:48:36;3.15;;;1.30;;
58470;SDS011;44258;51.288;12.068;2023-03-23T02:51:06;1.55;;;1.00;;
58470;SDS011;44258;51.288;12.068;2023-03-23T02:53:36;3.40;;;1.20;;
58470;SDS011;44258;51.288;12.068;2023-03-23T02:56:06;1.73;;;1.10;;
58470;SDS011;44258;51.288;12.068;2023-03-23T02:58:35;2.60;;;1.25;;
58470;SDS011;44258;51.288;12.068;2023-03-23T03:01:12;2.67;;;1.10;;
58470;SDS011;44258;51.288;12.068;2023-03-23T03:03:43;3.42;;;1.08;;
58470;SDS011;44258;51.288;12.068;2023-03-23T03:06:23;3.20;;;1.30;;
58470;SDS011;44258;51.288;12.068;2023-03-23T03:09:04;3.80;;;1.23;;
58470;SDS011;44258;51.288;12.068;2023-03-23T03:11:40;2.47;;;0.98;;
58470;SDS011;44258;51.288;12.068;2023-03-23T03:14:13;2.63;;;1.30;;
58470;SDS011;44258;51.288;12.068;2023-03-23T03:16:46;3.15;;;1.20;;
58470;SDS011;44258;51.288;12.068;2023-03-23T03:19:22;3.30;;;1.00;;
58470;SDS011;44258;51.288;12.068;2023-03-23T03:21:53;3.22;;;1.38;;
58470;SDS011;44258;51.288;12.068;2023-03-23T03:24:25;2.28;;;1.10;;
58470;SDS011;44258;51.288;12.068;2023-03-23T03:26:56;1.60;;;0.93;;
58470;SDS011;44258;51.288;12.068;2023-03-23T03:29:25;2.42;;;1.05;;
58470;SDS011;44258;51.288;12.068;2023-03-23T03:31:55;1.90;;;1.20;;
58470;SDS011;44258;51.288;12.068;2023-03-23T03:34:25;3.63;;;1.50;;
58470;SDS011;44258;51.288;12.068;2023-03-23T03:36:53;2.22;;;1.10;;
58470;SDS011;44258;51.288;12.068;2023-03-23T03:39:24;4.30;;;1.38;;
58470;SDS011;44258;51.288;12.068;2023-03-23T03:41:53;3.33;;;1.27;;
58470;SDS011;44258;51.288;12.068;2023-03-23T03:44:21;3.03;;;1.42;;
58470;SDS011;44258;51.288;12.068;2023-03-23T03:46:48;3.03;;;1.30;;
58470;SDS011;44258;51.288;12.068;2023-03-23T03:49:15;2.65;;;1.27;;
58470;SDS011;44258;51.288;12.068;2023-03-23T03:51:43;4.68;;;1.40;;
58470;SDS011;44258;51.288;12.068;2023-03-23T03:54:10;6.35;;;1.73;;
58470;SDS011;44258;51.288;12.068;2023-03-23T03:56:37;4.65;;;1.67;;
58470;SDS011;44258;51.288;12.068;2023-03-23T03:59:05;4.57;;;1.50;;
58470;SDS011;44258;51.288;12.068;2023-03-23T04:01:37;2.60;;;1.25;;
58470;SDS011;44258;51.288;12.068;2023-03-23T04:04:05;3.03;;;1.75;;
58470;SDS011;44258;51.288;12.068;2023-03-23T04:06:34;2.33;;;1.20;;
58470;SDS011;44258;51.288;12.068;2023-03-23T04:09:04;2.17;;;1.17;;
58470;SDS011;44258;51.288;12.068;2023-03-23T04:11:32;3.50;;;1.50;;
58470;SDS011;44258;51.288;12.068;2023-03-23T04:13:59;3.63;;;1.23;;
58470;SDS011;44258;51.288;12.068;2023-03-23T04:16:30;3.13;;;1.30;;
58470;SDS011;44258;51.288;12.068;2023-03-23T04:18:59;4.70;;;1.35;;
58470;SDS011;44258;51.288;12.068;2023-03-23T04:21:26;4.97;;;1.67;;
58470;SDS011;44258;51.288;12.068;2023-03-23T04:23:54;5.32;;;1.80;;
58470;SDS011;44258;51.288;12.068;2023-03-23T04:26:22;2.72;;;1.30;;
58470;SDS011;44258;51.288;12.068;2023-03-23T04:28:49;3.75;;;1.40;;
58470;SDS011;44258;51.288;12.068;2023-03-23T04:31:17;3.05;;;1.48;;
58470;SDS011;44258;51.288;12.068;2023-03-23T04:33:43;4.13;;;1.50;;
58470;SDS011;44258;51.288;12.068;2023-03-23T04:36:11;3.47;;;1.30;;
58470;SDS011;44258;51.288;12.068;2023-03-23T04:38:41;4.15;;;1.65;;
58470;SDS011;44258;51.288;12.068;2023-03-23T04:41:08;3.03;;;1.35;;
58470;SDS011;44258;51.288;12.068;2023-03-23T04:43:35;4.25;;;1.60;;
58470;SDS011;44258;51.288;12.068;2023-03-23T04:46:06;5.13;;;1.77;;
58470;SDS011;44258;51.288;12.068;2023-03-23T04:48:36;4.72;;;1.60;;
58470;SDS011;44258;51.288;12.068;2023-03-23T04:51:04;3.25;;;1.50;;
58470;SDS011;44258;51.288;12.068;2023-03-23T04:53:32;3.05;;;1.48;;
58470;SDS011;44258;51.288;12.068;2023-03-23T04:55:59;3.20;;;1.27;;
58470;SDS011;44258;51.288;12.068;2023-03-23T04:58:27;2.85;;;1.33;;
58470;SDS011;44258;51.288;12.068;2023-03-23T05:00:56;3.58;;;1.60;;
58470;SDS011;44258;51.288;12.068;2023-03-23T05:03:22;3.83;;;1.55;;
58470;SDS011;44258;51.288;12.068;2023-03-23T05:05:50;4.88;;;1.65;;
58470;SDS011;44258;51.288;12.068;2023-03-23T05:08:17;4.78;;;1.67;;
58470;SDS011;44258;51.288;12.068;2023-03-23T05:10:49;2.25;;;1.38;;
58470;SDS011;44258;51.288;12.068;2023-03-23T05:13:17;3.65;;;1.60;;
58470;SDS011;44258;51.288;12.068;2023-03-23T05:15:44;3.17;;;1.50;;
58470;SDS011;44258;51.288;12.068;2023-03-23T05:18:12;5.53;;;1.60;;
58470;SDS011;44258;51.288;12.068;2023-03-23T05:20:39;3.83;;;2.05;;
58470;SDS011;44258;51.288;12.068;2023-03-23T05:23:06;4.38;;;1.90;;
58470;SDS011;44258;51.288;12.068;2023-03-23T05:25:34;3.03;;;1.50;;
58470;SDS011;44258;51.288;12.068;2023-03-23T05:28:05;5.35;;;2.10;;
58470;SDS011;44258;51.288;12.068;2023-03-23T05:30:32;3.75;;;1.70;;
58470;SDS011;44258;51.288;12.068;2023-03-23T05:33:00;2.85;;;1.60;;
58470;SDS011;44258;51.288;12.068;2023-03-23T05:35:28;3.72;;;1.70;;
58470;SDS011;44258;51.288;12.068;2023-03-23T05:37:54;3.20;;;1.40;;
58470;SDS011;44258;51.288;12.068;2023-03-23T05:40:22;3.83;;;1.80;;
58470;SDS011;44258;51.288;12.068;2023-03-23T05:42:50;3.08;;;1.48;;
58470;SDS011;44258;51.288;12.068;2023-03-23T05:45:20;4.70;;;1.75;;
58470;SDS011;44258;51.288;12.068;2023-03-23T05:47:48;3.15;;;1.40;;
58470;SDS011;44258;51.288;12.068;2023-03-23T05:50:15;3.38;;;1.40;;
58470;SDS011;44258;51.288;12.068;2023-03-23T05:52:45;2.92;;;1.52;;
58470;SDS011;44258;51.288;12.068;2023-03-23T05:55:12;4.00;;;1.52;;
58470;SDS011;44258;51.288;12.068;2023-03-23T05:57:40;5.68;;;1.65;;
58470;SDS011;44258;51.288;12.068;2023-03-23T06:00:07;6.03;;;1.70;;
58470;SDS011;44258;51.288;12.068;2023-03-23T06:02:44;5.20;;;1.70;;
58470;SDS011;44258;51.288;12.068;2023-03-23T06:05:12;4.13;;;1.70;;
58470;SDS011;44258;51.288;12.068;2023-03-23T06:07:41;2.90;;;1.55;;
58470;SDS011;44258;51.288;12.068;2023-03-23T06:10:09;4.72;;;1.50;;
58470;SDS011;44258;51.288;12.068;2023-03-23T06:12:37;5.05;;;1.50;;
58470;SDS011;44258;51.288;12.068;2023-03-23T06:15:05;3.85;;;1.70;;
58470;SDS011;44258;51.288;12.068;2023-03-23T06:17:39;3.22;;;1.60;;
58470;SDS011;44258;51.288;12.068;2023-03-23T06:20:06;4.28;;;1.90;;
58470;SDS011;44258;51.288;12.068;2023-03-23T06:22:36;3.30;;;1.60;;
58470;SDS011;44258;51.288;12.068;2023-03-23T06:25:09;4.20;;;1.77;;
58470;SDS011;44258;51.288;12.068;2023-03-23T06:27:38;3.50;;;1.77;;
58470;SDS011;44258;51.288;12.068;2023-03-23T06:30:08;4.65;;;1.80;;
58470;SDS011;44258;51.288;12.068;2023-03-23T06:32:36;6.00;;;1.90;;
58470;SDS011;44258;51.288;12.068;2023-03-23T06:35:04;2.75;;;1.65;;
58470;SDS011;44258;51.288;12.068;2023-03-23T06:37:34;3.55;;;1.30;;
58470;SDS011;44258;51.288;12.068;2023-03-23T06:40:04;2.38;;;1.23;;
58470;SDS011;44258;51.288;12.068;2023-03-23T06:42:34;2.28;;;1.23;;
58470;SDS011;44258;51.288;12.068;2023-03-23T06:45:00;2.95;;;1.27;;
58470;SDS011;44258;51.288;12.068;2023-03-23T06:47:27;4.57;;;1.38;;
58470;SDS011;44258;51.288;12.068;2023-03-23T06:49:54;5.18;;;1.60;;
58470;SDS011;44258;51.288;12.068;2023-03-23T06:52:21;2.03;;;1.30;;
58470;SDS011;44258;51.288;12.068;2023-03-23T06:54:50;4.00;;;1.27;;
58470;SDS011;44258;51.288;12.068;2023-03-23T06:57:17;1.98;;;0.95;;
58470;SDS011;44258;51.288;12.068;2023-03-23T06:59:46;2.00;;;1.10;;
58470;SDS011;44258;51.288;12.068;2023-03-23T07:02:13;3.13;;;1.20;;
58470;SDS011;44258;51.288;12.068;2023-03-23T07:04:40;2.80;;;1.20;;
58470;SDS011;44258;51.288;12.068;2023-03-23T07:07:07;3.00;;;1.60;;
58470;SDS011;44258;51.288;12.068;2023-03-23T07:09:36;2.60;;;1.02;;
58470;SDS011;44258;51.288;12.068;2023-03-23T07:12:02;3.95;;;1.33;;
58470;SDS011;44258;51.288;12.068;2023-03-23T07:14:33;1.98;;;1.20;;
58470;SDS011;44258;51.288;12.068;2023-03-23T07:17:02;2.38;;;1.27;;
58470;SDS011;44258;51.288;12.068;2023-03-23T07:19:29;2.42;;;1.20;;
58470;SDS011;44258;51.288;12.068;2023-03-23T07:21:56;3.13;;;1.20;;
58470;SDS011;44258;51.288;12.068;2023-03-23T07:24:23;2.95;;;1.10;;
58470;SDS011;44258;51.288;12.068;2023-03-23T07:26:51;2.08;;;1.02;;
58470;SDS011;44258;51.288;12.068;2023-03-23T07:29:17;5.75;;;1.67;;
58470;SDS011;44258;51.288;12.068;2023-03-23T07:31:46;4.13;;;1.10;;
58470;SDS011;44258;51.288;12.068;2023-03-23T07:34:20;3.22;;;1.02;;
58470;SDS011;44258;51.288;12.068;2023-03-23T07:36:47;3.60;;;1.10;;
58470;SDS011;44258;51.288;12.068;2023-03-23T07:39:14;4.45;;;1.52;;
58470;SDS011;44258;51.288;12.068;2023-03-23T07:41:41;2.58;;;1.20;;
58470;SDS011;44258;51.288;12.068;2023-03-23T07:44:08;3.30;;;1.35;;
58470;SDS011;44258;51.288;12.068;2023-03-23T07:46:35;6.25;;;1.60;;
58470;SDS011;44258;51.288;12.068;2023-03-23T07:49:03;5.70;;;1.60;;
58470;SDS011;44258;51.288;12.068;2023-03-23T07:51:32;2.55;;;1.20;;
58470;SDS011;44258;51.288;12.068;2023-03-23T07:53:59;3.97;;;1.60;;
58470;SDS011;44258;51.288;12.068;2023-03-23T07:56:28;4.00;;;1.70;;
58470;SDS011;44258;51.288;12.068;2023-03-23T07:58:55;4.88;;;1.50;;
58470;SDS011;44258;51.288;12.068;2023-03-23T08:01:21;1.75;;;1.10;;
58470;SDS011;44258;51.288;12.068;2023-03-23T08:03:52;4.20;;;1.65;;
58470;SDS011;44258;51.288;12.068;2023-03-23T08:06:19;3.95;;;1.35;;
58470;SDS011;44258;51.288;12.068;2023-03-23T08:08:49;4.03;;;1.30;;
58470;SDS011;44258;51.288;12.068;2023-03-23T08:11:16;7.20;;;2.22;;
58470;SDS011;44258;51.288;12.068;2023-03-23T08:13:43;5.47;;;2.17;;
58470;SDS011;44258;51.288;12.068;2023-03-23T08:16:10;5.60;;;2.20;;
58470;SDS011;44258;51.288;12.068;2023-03-23T08:18:37;3.10;;;1.70;;
58470;SDS011;44258;51.288;12.068;2023-03-23T08:21:06;5.63;;;2.08;;
58470;SDS011;44258;51.288;12.068;2023-03-23T08:23:34;5.15;;;1.75;;
58470;SDS011;44258;51.288;12.068;2023-03-23T08:26:03;3.65;;;1.95;;
58470;SDS011;44258;51.288;12.068;2023-03-23T08:28:31;4.35;;;2.08;;
58470;SDS011;44258;51.288;12.068;2023-03-23T08:31:05;4.97;;;1.73;;
58470;SDS011;44258;51.288;12.068;2023-03-23T08:33:33;4.35;;;1.73;;
58470;SDS011;44258;51.288;12.068;2023-03-23T08:36:00;4.53;;;1.80;;
58470;SDS011;44258;51.288;12.068;2023-03-23T08:38:28;5.85;;;1.80;;
58470;SDS011;44258;51.288;12.068;2023-03-23T08:40:57;4.05;;;1.80;;
58470;SDS011;44258;51.288;12.068;2023-03-23T08:43:25;4.50;;;1.52;;
58470;SDS011;44258;51.288;12.068;2023-03-23T08:45:52;4.00;;;1.40;;
58470;SDS011;44258;51.288;12.068;2023-03-23T08:48:19;4.55;;;1.58;;
58470;SDS011;44258;51.288;12.068;2023-03-23T08:50:47;4.80;;;1.83;;
58470;SDS011;44258;51.288;12.068;2023-03-23T08:53:15;3.92;;;1.92;;
58470;SDS011;44258;51.288;12.068;2023-03-23T08:55:42;4.80;;;1.77;;
58470;SDS011;44258;51.288;12.068;2023-03-23T08:58:20;6.53;;;2.03;;
58470;SDS011;44258;51.288;12.068;2023-03-23T09:00:49;5.78;;;1.63;;
58470;SDS011;44258;51.288;12.068;2023-03-23T09:03:16;6.10;;;1.90;;
58470;SDS011;44258;51.288;12.068;2023-03-23T09:05:43;4.13;;;1.60;;
58470;SDS011;44258;51.288;12.068;2023-03-23T09:08:11;5.82;;;1.70;;
58470;SDS011;44258;51.288;12.068;2023-03-23T09:10:40;4.40;;;1.35;;
58470;SDS011;44258;51.288;12.068;2023-03-23T09:13:07;3.38;;;1.60;;
58470;SDS011;44258;51.288;12.068;2023-03-23T09:15:34;6.03;;;1.63;;
58470;SDS011;44258;51.288;12.068;2023-03-23T09:18:03;5.78;;;1.90;;
58470;SDS011;44258;51.288;12.068;2023-03-23T09:20:29;5.72;;;1.77;;
58470;SDS011;44258;51.288;12.068;2023-03-23T09:22:57;3.25;;;1.50;;
58470;SDS011;44258;51.288;12.068;2023-03-23T09:25:26;3.67;;;1.50;;
58470;SDS011;44258;51.288;12.068;2023-03-23T09:27:57;4.70;;;1.70;;
58470;SDS011;44258;51.288;12.068;2023-03-23T09:30:25;4.57;;;1.50;;
58470;SDS011;44258;51.288;12.068;2023-03-23T09:32:53;2.78;;;1.40;;
58470;SDS011;44258;51.288;12.068;2023-03-23T09:35:22;5.25;;;1.70;;
58470;SDS011;44258;51.288;12.068;2023-03-23T09:37:53;4.13;;;1.38;;
58470;SDS011;44258;51.288;12.068;2023-03-23T09:40:21;5.60;;;1.80;;
58470;SDS011;44258;51.288;12.068;2023-03-23T09:43:13;4.32;;;1.48;;
58470;SDS011;44258;51.288;12.068;2023-03-23T09:46:01;3.50;;;1.60;;
58470;SDS011;44258;51.288;12.068;2023-03-23T09:48:43;3.97;;;1.73;;
58470;SDS011;44258;51.288;12.068;2023-03-23T09:51:21;5.67;;;2.00;;
58470;SDS011;44258;51.288;12.068;2023-03-23T09:53:57;2.67;;;1.45;;
58470;SDS011;44258;51.288;12.068;2023-03-23T09:56:29;3.70;;;1.50;;
58470;SDS011;44258;51.288;12.068;2023-03-23T09:58:58;3.95;;;1.75;;
58470;SDS011;44258;51.288;12.068;2023-03-23T10:01:31;3.45;;;1.40;;
58470;SDS011;44258;51.288;12.068;2023-03-23T10:04:02;3.72;;;1.50;;
58470;SDS011;44258;51.288;12.068;2023-03-23T10:06:40;3.65;;;1.40;;
58470;SDS011;44258;51.288;12.068;2023-03-23T10:09:13;3.85;;;1.20;;
58470;SDS011;44258;51.288;12.068;2023-03-23T10:14:20;3.38;;;1.30;;
58470;SDS011;44258;51.288;12.068;2023-03-23T10:16:58;3.50;;;1.52;;
58470;SDS011;44258;51.288;12.068;2023-03-23T10:19:32;3.53;;;1.13;;
58470;SDS011;44258;51.288;12.068;2023-03-23T10:22:04;2.60;;;1.15;;
58470;SDS011;44258;51.288;12.068;2023-03-23T10:24:36;2.45;;;1.50;;
58470;SDS011;44258;51.288;12.068;2023-03-23T10:27:16;2.85;;;1.30;;
58470;SDS011;44258;51.288;12.068;2023-03-23T10:29:48;3.50;;;1.15;;
58470;SDS011;44258;51.288;12.068;2023-03-23T10:32:21;1.55;;;0.73;;
58470;SDS011;44258;51.288;12.068;2023-03-23T10:34:53;2.95;;;1.30;;
58470;SDS011;44258;51.288;12.068;2023-03-23T10:37:32;2.30;;;0.95;;
58470;SDS011;44258;51.288;12.068;2023-03-23T10:40:05;2.42;;;1.00;;
58470;SDS011;44258;51.288;12.068;2023-03-23T10:42:41;1.67;;;0.90;;
58470;SDS011;44258;51.288;12.068;2023-03-23T10:45:13;2.13;;;0.85;;
58470;SDS011;44258;51.288;12.068;2023-03-23T10:47:46;2.08;;;1.40;;
58470;SDS011;44258;51.288;12.068;2023-03-23T10:50:18;3.00;;;0.73;;
58470;SDS011;44258;51.288;12.068;2023-03-23T10:52:53;2.03;;;1.00;;
58470;SDS011;44258;51.288;12.068;2023-03-23T10:55:23;2.63;;;1.08;;
58470;SDS011;44258;51.288;12.068;2023-03-23T10:58:01;2.53;;;1.02;;
58470;SDS011;44258;51.288;12.068;2023-03-23T11:00:29;1.27;;;0.75;;
58470;SDS011;44258;51.288;12.068;2023-03-23T11:03:01;2.58;;;1.20;;
58470;SDS011;44258;51.288;12.068;2023-03-23T11:05:36;3.15;;;1.27;;
58470;SDS011;44258;51.288;12.068;2023-03-23T11:08:12;2.40;;;0.70;;
58470;SDS011;44258;51.288;12.068;2023-03-23T11:10:40;2.00;;;0.80;;
58470;SDS011;44258;51.288;12.068;2023-03-23T11:13:11;3.63;;;1.10;;
58470;SDS011;44258;51.288;12.068;2023-03-23T11:15:40;2.10;;;1.17;;
58470;SDS011;44258;51.288;12.068;2023-03-23T11:18:12;4.25;;;1.58;;
58470;SDS011;44258;51.288;12.068;2023-03-23T11:20:44;2.97;;;1.35;;
58470;SDS011;44258;51.288;12.068;2023-03-23T11:23:18;2.55;;;1.13;;
58470;SDS011;44258;51.288;12.068;2023-03-23T11:25:51;3.05;;;1.27;;
58470;SDS011;44258;51.288;12.068;2023-03-23T11:28:21;3.13;;;0.95;;
58470;SDS011;44258;51.288;12.068;2023-03-23T11:30:57;3.50;;;1.27;;
58470;SDS011;44258;51.288;12.068;2023-03-23T11:33:28;2.95;;;1.30;;
58470;SDS011;44258;51.288;12.068;2023-03-23T11:35:55;2.20;;;1.20;;
58470;SDS011;44258;51.288;12.068;2023-03-23T11:38:27;4.18;;;1.50;;
58470;SDS011;44258;51.288;12.068;2023-03-23T11:40:58;3.00;;;1.13;;
58470;SDS011;44258;51.288;12.068;2023-03-23T11:43:25;1.85;;;1.00;;
58470;SDS011;44258;51.288;12.068;2023-03-23T11:45:55;2.58;;;1.15;;
58470;SDS011;44258;51.288;12.068;2023-03-23T11:48:29;3.20;;;1.00;;
58470;SDS011;44258;51.288;12.068;2023-03-23T11:51:04;3.33;;;1.20;;
58470;SDS011;44258;51.288;12.068;2023-03-23T11:53:40;1.75;;;1.10;;
58470;SDS011;44258;51.288;12.068;2023-03-23T11:56:15;2.75;;;1.17;;
58470;SDS011;44258;51.288;12.068;2023-03-23T11:58:49;5.47;;;1.23;;
58470;SDS011;44258;51.288;12.068;2023-03-23T12:01:22;2.83;;;1.20;;
58470;SDS011;44258;51.288;12.068;2023-03-23T12:04:12;4.30;;;1.30;;
58470;SDS011;44258;51.288;12.068;2023-03-23T12:06:57;3.30;;;1.25;;
58470;SDS011;44258;51.288;12.068;2023-03-23T12:09:36;2.33;;;0.98;;
58470;SDS011;44258;51.288;12.068;2023-03-23T12:12:15;2.72;;;0.98;;
58470;SDS011;44258;51.288;12.068;2023-03-23T12:14:53;3.05;;;1.20;;
58470;SDS011;44258;51.288;12.068;2023-03-23T12:17:31;2.60;;;1.10;;
58470;SDS011;44258;51.288;12.068;2023-03-23T12:20:13;2.38;;;0.95;;
58470;SDS011;44258;51.288;12.068;2023-03-23T12:22:53;1.85;;;0.98;;
58470;SDS011;44258;51.288;12.068;2023-03-23T12:25:43;3.57;;;1.30;;
58470;SDS011;44258;51.288;12.068;2023-03-23T12:28:21;1.92;;;0.95;;
58470;SDS011;44258;51.288;12.068;2023-03-23T12:30:59;3.08;;;1.10;;
58470;SDS011;44258;51.288;12.068;2023-03-23T12:33:37;4.70;;;0.98;;
58470;SDS011;44258;51.288;12.068;2023-03-23T12:36:17;2.97;;;1.00;;
58470;SDS011;44258;51.288;12.068;2023-03-23T12:39:00;4.55;;;1.20;;
58470;SDS011;44258;51.288;12.068;2023-03-23T12:41:41;2.50;;;0.82;;
58470;SDS011;44258;51.288;12.068;2023-03-23T12:44:16;1.65;;;1.20;;
58470;SDS011;44258;51.288;12.068;2023-03-23T12:46:51;2.70;;;1.33;;
58470;SDS011;44258;51.288;12.068;2023-03-23T12:52:08;2.40;;;1.08;;
58470;SDS011;44258;51.288;12.068;2023-03-23T12:54:41;2.00;;;0.90;;
58470;SDS011;44258;51.288;12.068;2023-03-23T12:57:24;2.05;;;0.90;;
58470;SDS011;44258;51.288;12.068;2023-03-23T12:59:58;2.97;;;1.00;;
58470;SDS011;44258;51.288;12.068;2023-03-23T13:02:39;2.58;;;1.00;;
58470;SDS011;44258;51.288;12.068;2023-03-23T13:05:09;2.30;;;1.10;;
58470;SDS011;44258;51.288;12.068;2023-03-23T13:07:42;1.90;;;0.80;;
58470;SDS011;44258;51.288;12.068;2023-03-23T13:10:15;2.10;;;0.90;;
58470;SDS011;44258;51.288;12.068;2023-03-23T13:12:48;1.20;;;0.80;;
58470;SDS011;44258;51.288;12.068;2023-03-23T13:15:20;1.88;;;1.00;;
58470;SDS011;44258;51.288;12.068;2023-03-23T13:17:59;1.67;;;0.80;;
58470;SDS011;44258;51.288;12.068;2023-03-23T13:20:43;2.58;;;0.93;;
58470;SDS011;44258;51.288;12.068;2023-03-23T13:23:21;4.22;;;1.10;;
58470;SDS011;44258;51.288;12.068;2023-03-23T13:25:50;2.35;;;0.98;;
58470;SDS011;44258;51.288;12.068;2023-03-23T13:28:25;1.50;;;0.90;;
58470;SDS011;44258;51.288;12.068;2023-03-23T13:30:57;1.92;;;0.90;;
58470;SDS011;44258;51.288;12.068;2023-03-23T13:33:28;1.65;;;0.90;;
58470;SDS011;44258;51.288;12.068;2023-03-23T13:36:01;3.05;;;1.00;;
58470;SDS011;44258;51.288;12.068;2023-03-23T13:38:32;3.38;;;1.30;;
58470;SDS011;44258;51.288;12.068;2023-03-23T13:41:05;2.90;;;1.40;;
58470;SDS011;44258;51.288;12.068;2023-03-23T13:43:36;7.30;;;1.38;;
58470;SDS011;44258;51.288;12.068;2023-03-23T13:46:08;7.30;;;1.30;;
58470;SDS011;44258;51.288;12.068;2023-03-23T13:48:45;2.60;;;1.17;;
58470;SDS011;44258;51.288;12.068;2023-03-23T13:51:32;2.95;;;1.20;;
58470;SDS011;44258;51.288;12.068;2023-03-23T13:56:56;2.53;;;0.90;;
58470;SDS011;44258;51.288;12.068;2023-03-23T13:59:32;3.60;;;1.17;;
58470;SDS011;44258;51.288;12.068;2023-03-23T14:05:09;4.63;;;1.00;;
58470;SDS011;44258;51.288;12.068;2023-03-23T14:07:55;2.13;;;0.90;;
58470;SDS011;44258;51.288;12.068;2023-03-23T14:10:25;1.83;;;0.93;;
58470;SDS011;44258;51.288;12.068;2023-03-23T14:13:00;1.63;;;0.82;;
58470;SDS011;44258;51.288;12.068;2023-03-23T14:15:29;3.72;;;1.05;;
58470;SDS011;44258;51.288;12.068;2023-03-23T14:17:57;2.75;;;1.10;;
58470;SDS011;44258;51.288;12.068;2023-03-23T14:20:30;4.78;;;1.20;;
58470;SDS011;44258;51.288;12.068;2023-03-23T14:22:59;2.97;;;1.10;;
58470;SDS011;44258;51.288;12.068;2023-03-23T14:25:27;2.85;;;1.08;;
58470;SDS011;44258;51.288;12.068;2023-03-23T14:27:58;2.60;;;1.00;;
58470;SDS011;44258;51.288;12.068;2023-03-23T14:30:25;3.65;;;1.38;;
58470;SDS011;44258;51.288;12.068;2023-03-23T14:33:04;3.00;;;1.23;;
58470;SDS011;44258;51.288;12.068;2023-03-23T14:35:34;2.85;;;1.30;;
58470;SDS011;44258;51.288;12.068;2023-03-23T14:38:09;2.17;;;0.85;;
58470;SDS011;44258;51.288;12.068;2023-03-23T14:40:40;2.50;;;1.00;;
58470;SDS011;44258;51.288;12.068;2023-03-23T14:43:08;2.00;;;1.00;;
58470;SDS011;44258;51.288;12.068;2023-03-23T14:45:42;2.08;;;1.00;;
58470;SDS011;44258;51.288;12.068;2023-03-23T14:48:12;2.85;;;1.75;;
58470;SDS011;44258;51.288;12.068;2023-03-23T14:50:41;2.38;;;1.00;;
58470;SDS011;44258;51.288;12.068;2023-03-23T14:53:16;2.35;;;1.00;;
58470;SDS011;44258;51.288;12.068;2023-03-23T14:55:47;2.60;;;1.00;;
58470;SDS011;44258;51.288;12.068;2023-03-23T14:58:15;3.30;;;1.05;;
58470;SDS011;44258;51.288;12.068;2023-03-23T15:00:49;2.58;;;0.88;;
58470;SDS011;44258;51.288;12.068;2023-03-23T15:03:22;2.33;;;0.90;;
58470;SDS011;44258;51.288;12.068;2023-03-23T15:05:50;3.38;;;1.10;;
58470;SDS011;44258;51.288;12.068;2023-03-23T15:08:24;2.35;;;1.00;;
58470;SDS011;44258;51.288;12.068;2023-03-23T15:11:03;2.53;;;0.95;;
58470;SDS011;44258;51.288;12.068;2023-03-23T15:13:33;3.15;;;1.30;;
58470;SDS011;44258;51.288;12.068;2023-03-23T15:16:04;1.83;;;1.10;;